Time;durP1;ratioP1;P1;durP2;ratioP2;P2;SDS_P1;SDS_P2;PMS_P1;PMS_P2;Temp;Humidity;BMP_temperature;BMP_pressure;BME280_temperature;BME280_humidity;BME280_pressure;Samples;Min_cycle;Max_cycle;Signal;HPM_P1;HPM_P2
2023/07/26 00:02:17;;;;;;;0.35;0.30;;;;;;;22.42;64.05;98722.50;4479660;31;33589;-89
2023/07/26 00:04:45;;;;;;;0.10;0.10;;;;;;;22.44;63.72;98725.00;4473453;31;32163;-89
2023/07/26 00:07:13;;;;;;;0.40;0.40;;;;;;;22.59;62.91;98717.91;4479580;31;34411;-89
2023/07/26 00:09:40;;;;;;;1.85;0.43;;;;;;;22.34;63.96;98729.72;4478228;31;32362;-89
2023/07/26 00:12:09;;;;;;;0.28;0.28;;;;;;;22.10;64.30;98717.91;4467415;31;32738;-89
2023/07/26 00:14:37;;;;;;;0.20;0.20;;;;;;;22.18;64.23;98714.41;4465638;31;33132;-89
2023/07/26 00:17:04;;;;;;;0.57;0.47;;;;;;;21.99;65.41;98704.78;4478393;32;34367;-89
2023/07/26 00:19:32;;;;;;;0.65;0.35;;;;;;;22.07;64.87;98701.25;4461269;31;33235;-90
2023/07/26 00:22:00;;;;;;;1.45;0.47;;;;;;;22.11;64.64;98703.47;4464880;31;33012;-89
2023/07/26 00:24:27;;;;;;;0.37;0.37;;;;;;;22.05;64.72;98697.91;4464561;31;33156;-89
2023/07/26 00:26:55;;;;;;;0.50;0.50;;;;;;;21.95;65.14;98681.94;4476083;31;32841;-89
2023/07/26 00:29:23;;;;;;;0.73;0.60;;;;;;;21.80;65.99;98673.69;4466613;31;32798;-90
2023/07/26 00:31:53;;;;;;;0.55;0.55;;;;;;;21.83;65.88;98667.13;4492999;31;34154;-89
2023/07/26 00:34:21;;;;;;;0.13;0.13;;;;;;;21.72;66.32;98653.03;4480067;31;34532;-89
2023/07/26 00:36:48;;;;;;;0.65;0.30;;;;;;;21.78;65.99;98639.94;4473831;31;33008;-89
2023/07/26 00:39:16;;;;;;;1.10;0.55;;;;;;;21.86;65.60;98623.81;4472437;31;32893;-89
2023/07/26 00:41:45;;;;;;;0.22;0.22;;;;;;;21.77;66.18;98620.28;4472194;32;33267;-89
2023/07/26 00:44:12;;;;;;;0.90;0.75;;;;;;;21.71;66.50;98616.41;4459305;32;33155;-88
2023/07/26 00:46:40;;;;;;;0.10;0.10;;;;;;;21.60;67.26;98613.19;4472267;32;33659;-89
2023/07/26 00:49:08;;;;;;;1.25;0.62;;;;;;;21.87;66.13;98609.38;4459296;32;32975;-88
2023/07/26 00:51:37;;;;;;;0.10;0.03;;;;;;;21.89;66.26;98583.19;4459425;32;32330;-88
2023/07/26 00:54:06;;;;;;;0.03;0.03;;;;;;;21.88;65.75;98592.22;4459369;32;32991;-88
2023/07/26 00:56:34;;;;;;;1.33;0.52;;;;;;;21.60;67.25;98597.94;4459290;32;33274;-88
2023/07/26 01:03:25;;;;;;;0.55;0.55;;;;;;;21.82;66.62;98599.13;4485478;32;34042;-88
2023/07/26 01:10:19;;;;;;;0.25;0.25;;;;;;;21.38;68.18;98583.31;4486616;32;35784;-89
2023/07/26 01:12:55;;;;;;;0.00;0.00;;;;;;;21.33;68.72;98569.53;4472240;32;32946;-89
2023/07/26 01:15:27;;;;;;;0.15;0.15;;;;;;;21.70;66.65;98569.06;4472033;32;32739;-89
2023/07/26 01:18:14;;;;;;;1.25;0.85;;;;;;;21.69;66.34;98558.47;4472181;32;34229;-89
2023/07/26 01:20:42;;;;;;;0.88;0.40;;;;;;;21.89;65.45;98541.03;4472101;32;33779;-89
2023/07/26 01:23:10;;;;;;;0.30;0.28;;;;;;;21.92;65.16;98537.97;4484003;31;32614;-88
2023/07/26 01:25:38;;;;;;;0.20;0.17;;;;;;;21.60;66.85;98544.22;4466400;32;31950;-88
2023/07/26 01:28:06;;;;;;;0.20;0.20;;;;;;;21.27;67.90;98558.56;4460008;31;32870;-89
2023/07/26 01:30:34;;;;;;;0.30;0.28;;;;;;;21.38;67.51;98561.81;4465209;32;33246;-89
2023/07/26 01:33:05;;;;;;;0.85;0.68;;;;;;;21.29;67.50;98551.22;4484731;32;33859;-89
2023/07/26 01:35:35;;;;;;;0.23;0.10;;;;;;;21.43;66.45;98542.53;4468057;31;32803;-89
2023/07/26 01:38:03;;;;;;;0.20;0.20;;;;;;;21.41;66.65;98515.00;4458979;32;33371;-89
2023/07/26 01:40:32;;;;;;;0.22;0.20;;;;;;;21.33;67.27;98523.06;4487509;31;33590;-88
2023/07/26 01:43:02;;;;;;;1.20;0.80;;;;;;;21.47;66.65;98519.72;4477251;31;34692;-89
2023/07/26 01:45:30;;;;;;;1.33;0.70;;;;;;;21.50;66.30;98532.78;4481384;31;32763;-89
2023/07/26 01:47:58;;;;;;;0.10;0.10;;;;;;;21.68;64.97;98543.38;4465666;31;33342;-89
2023/07/26 01:50:26;;;;;;;0.20;0.20;;;;;;;21.68;64.89;98557.66;4468201;31;32777;-89
2023/07/26 01:52:53;;;;;;;0.30;0.30;;;;;;;21.57;65.46;98570.59;4464566;31;32353;-89
2023/07/26 01:55:22;;;;;;;0.20;0.20;;;;;;;21.86;64.08;98575.44;4467052;31;33881;-88
2023/07/26 01:57:50;;;;;;;0.32;0.25;;;;;;;21.94;63.64;98573.59;4471056;31;33494;-87
2023/07/26 02:00:17;;;;;;;0.35;0.20;;;;;;;21.76;64.97;98585.53;4482553;31;32789;-88
2023/07/26 02:02:45;;;;;;;0.13;0.13;;;;;;;21.61;65.37;98586.19;4475316;31;33862;-88
2023/07/26 02:05:13;;;;;;;0.32;0.32;;;;;;;21.63;65.43;98592.22;4467328;31;33264;-88
2023/07/26 02:07:40;;;;;;;0.80;0.20;;;;;;;21.54;65.36;98597.75;4475395;32;33534;-88
2023/07/26 02:10:08;;;;;;;0.70;0.52;;;;;;;21.24;66.40;98597.34;4479479;31;34760;-88
2023/07/26 02:12:36;;;;;;;0.03;0.03;;;;;;;21.45;65.59;98599.59;4477519;32;32668;-88
2023/07/26 02:15:07;;;;;;;0.52;0.52;;;;;;;21.38;66.33;98599.41;4473655;31;32694;-88
2023/07/26 02:17:35;;;;;;;0.75;0.62;;;;;;;21.56;65.40;98612.72;4479245;31;33871;-88
2023/07/26 02:20:04;;;;;;;0.30;0.30;;;;;;;21.61;65.56;98618.44;4466357;31;33839;-88
2023/07/26 02:22:32;;;;;;;0.00;0.00;;;;;;;21.61;65.28;98620.28;4476882;31;34503;-88
2023/07/26 02:25:00;;;;;;;0.47;0.47;;;;;;;21.66;65.67;98623.31;4480887;31;31914;-88
2023/07/26 02:27:28;;;;;;;1.08;0.75;;;;;;;21.48;66.62;98626.97;4477000;31;33332;-88
2023/07/26 02:29:56;;;;;;;0.52;0.13;;;;;;;21.70;65.12;98630.88;4471274;31;33770;-88
2023/07/26 02:32:24;;;;;;;0.32;0.10;;;;;;;21.80;64.96;98630.72;4475654;31;33162;-88
2023/07/26 02:34:52;;;;;;;0.93;0.68;;;;;;;21.70;65.35;98624.66;4474670;31;33828;-88
2023/07/26 02:37:20;;;;;;;0.20;0.20;;;;;;;21.87;64.58;98629.03;4469312;31;33673;-88
2023/07/26 02:39:48;;;;;;;1.33;0.90;;;;;;;21.60;66.15;98640.94;4477996;31;32579;-88
2023/07/26 02:42:16;;;;;;;0.57;0.55;;;;;;;21.57;66.38;98635.03;4476662;31;32854;-87
2023/07/26 02:44:45;;;;;;;2.45;1.15;;;;;;;21.49;66.27;98633.16;4492746;31;33126;-87
2023/07/26 02:47:13;;;;;;;0.10;0.10;;;;;;;21.85;64.88;98630.22;4467811;31;33154;-88
2023/07/26 02:49:55;;;;;;;0.95;0.52;;;;;;;21.56;65.51;98628.84;4465763;31;33135;-88
2023/07/26 02:52:23;;;;;;;;;;;;;;;21.46;65.93;98628.16;4470812;31;33004;-88
2023/07/26 02:54:50;;;;;;;0.47;0.47;;;;;;;21.36;66.82;98627.44;4476823;31;31970;-88
2023/07/26 02:57:18;;;;;;;0.50;0.35;;;;;;;21.48;66.15;98623.44;4477915;31;33485;-87
2023/07/26 02:59:46;;;;;;;0.32;0.32;;;;;;;21.44;66.34;98619.41;4472446;31;33990;-89
2023/07/26 03:02:13;;;;;;;0.30;0.30;;;;;;;21.54;65.60;98620.09;4467255;31;32412;-88
2023/07/26 03:04:41;;;;;;;0.00;0.00;;;;;;;21.39;66.58;98617.22;4460911;32;31914;-88
2023/07/26 03:07:10;;;;;;;0.40;0.37;;;;;;;21.18;67.81;98617.62;4471214;31;32850;-89
2023/07/26 03:09:37;;;;;;;0.40;0.40;;;;;;;21.40;66.75;98618.88;4467448;32;33099;-89
2023/07/26 03:12:05;;;;;;;0.35;0.28;;;;;;;21.51;66.37;98622.25;4468288;31;33659;-88
2023/07/26 03:14:33;;;;;;;0.30;0.30;;;;;;;21.61;65.50;98613.06;4461698;32;32192;-88
2023/07/26 03:17:00;;;;;;;0.40;0.30;;;;;;;21.53;65.67;98615.72;4483923;32;34579;-88
2023/07/26 03:19:48;;;;;;;0.17;0.17;;;;;;;21.83;64.43;98618.78;4472727;32;32851;-88
2023/07/26 03:22:16;;;;;;;0.90;0.65;;;;;;;21.52;65.97;98622.09;4484326;31;33703;-87
2023/07/26 03:24:44;;;;;;;0.10;0.10;;;;;;;21.48;65.79;98624.28;4464630;31;33864;-87
2023/07/26 03:27:12;;;;;;;0.28;0.28;;;;;;;21.36;66.09;98622.91;4479543;31;35369;-87
2023/07/26 03:29:39;;;;;;;1.02;0.47;;;;;;;21.51;65.39;98628.50;4467195;31;32765;-86
2023/07/26 03:32:08;;;;;;;0.70;0.70;;;;;;;21.52;65.26;98632.84;4479884;31;33824;-87
2023/07/26 03:34:36;;;;;;;0.30;0.30;;;;;;;21.54;65.12;98635.38;4467390;31;32654;-87
2023/07/26 03:37:04;;;;;;;0.37;0.37;;;;;;;21.36;65.21;98635.47;4491273;31;33934;-87
2023/07/26 03:39:32;;;;;;;0.20;0.20;;;;;;;21.37;65.04;98638.03;4493799;31;33109;-86
2023/07/26 03:42:00;;;;;;;0.52;0.47;;;;;;;21.01;66.32;98639.22;4475763;31;32765;-87
2023/07/26 03:44:28;;;;;;;4.18;0.82;;;;;;;20.86;66.86;98663.12;4477840;32;32048;-87
2023/07/26 03:46:55;;;;;;;3.83;0.62;;;;;;;20.73;66.98;98662.72;4467039;31;33144;-87
2023/07/26 03:49:23;;;;;;;2.40;0.70;;;;;;;20.89;66.37;98668.19;4484772;31;34678;-87
2023/07/26 03:51:51;;;;;;;0.57;0.57;;;;;;;21.00;65.89;98692.03;4488391;31;33962;-88
2023/07/26 03:58:40;;;;;;;0.15;0.15;;;;;;;20.80;66.45;98695.97;4500206;31;34707;-88
2023/07/26 04:01:10;;;;;;;0.00;0.00;;;;;;;20.94;65.71;98681.97;4466252;31;33983;-88
2023/07/26 04:03:38;;;;;;;0.20;0.10;;;;;;;20.68;65.90;98681.97;4477038;32;33502;-88
2023/07/26 04:06:11;;;;;;;0.40;0.20;;;;;;;20.35;66.42;98692.44;4474182;31;32982;-88
2023/07/26 04:08:39;;;;;;;0.17;0.17;;;;;;;20.42;66.15;98692.66;4473073;31;34158;-88
2023/07/26 04:11:26;;;;;;;0.20;0.17;;;;;;;20.39;66.45;98692.97;4476637;32;33127;-88
2023/07/26 04:13:54;;;;;;;4.43;0.28;;;;;;;20.71;64.91;98674.44;4488013;31;33739;-89
2023/07/26 04:16:22;;;;;;;0.10;0.10;;;;;;;20.49;65.14;98687.53;4463822;32;32886;-89
2023/07/26 04:18:51;;;;;;;0.40;0.20;;;;;;;20.39;64.94;98698.34;4460944;31;32943;-89
2023/07/26 04:21:19;;;;;;;0.17;0.17;;;;;;;20.40;64.90;98703.53;4462089;32;33673;-89
2023/07/26 04:23:47;;;;;;;1.52;0.65;;;;;;;20.55;63.70;98714.56;4462750;32;33321;-89
2023/07/26 04:26:15;;;;;;;0.30;0.17;;;;;;;20.60;63.94;98711.41;4459547;32;32527;-88
2023/07/26 04:28:42;;;;;;;0.10;0.10;;;;;;;20.42;63.48;98704.22;4472454;32;34529;-89
2023/07/26 04:31:10;;;;;;;0.17;0.17;;;;;;;20.61;63.23;98707.75;4480256;31;33164;-89
2023/07/26 04:33:39;;;;;;;0.00;0.00;;;;;;;20.71;62.33;98712.00;4464847;31;33177;-89
2023/07/26 04:36:07;;;;;;;1.33;0.80;;;;;;;20.89;61.56;98703.06;4461370;32;32796;-88
2023/07/26 04:38:34;;;;;;;1.12;0.45;;;;;;;21.05;61.07;98707.66;4498143;31;33620;-89
2023/07/26 04:41:04;;;;;;;0.05;0.05;;;;;;;20.44;63.22;98706.75;4473493;31;33991;-87
2023/07/26 04:43:31;;;;;;;1.45;0.60;;;;;;;20.88;61.37;98699.50;4481565;31;32635;-87
2023/07/26 04:45:59;;;;;;;0.32;0.32;;;;;;;21.15;60.12;98697.63;4468906;31;32049;-87
2023/07/26 04:48:27;;;;;;;0.03;0.03;;;;;;;20.84;61.70;98697.31;4490609;31;34660;-88
2023/07/26 04:50:54;;;;;;;2.75;0.22;;;;;;;21.28;59.69;98695.34;4492730;31;33972;-88
2023/07/26 04:53:22;;;;;;;0.08;0.08;;;;;;;21.44;58.54;98700.81;4477312;31;33472;-87
2023/07/26 04:55:51;;;;;;;0.30;0.20;;;;;;;21.34;58.81;98694.72;4490385;31;32988;-87
2023/07/26 04:58:19;;;;;;;0.00;0.00;;;;;;;21.32;58.81;98707.50;4477649;31;34184;-87
2023/07/26 05:00:47;;;;;;;3.40;0.15;;;;;;;21.60;58.29;98700.03;4477748;31;32513;-87
2023/07/26 05:03:14;;;;;;;0.00;0.00;;;;;;;21.63;57.14;98694.31;4476348;31;33221;-87
2023/07/26 05:05:48;;;;;;;0.05;0.05;;;;;;;21.27;57.94;98693.69;4466847;31;33458;-87
2023/07/26 05:08:16;;;;;;;0.30;0.30;;;;;;;20.53;61.19;98699.63;4490822;31;33535;-87
2023/07/26 05:10:49;;;;;;;0.40;0.37;;;;;;;20.62;60.31;98699.53;4465202;31;34184;-86
2023/07/26 05:13:17;;;;;;;0.20;0.20;;;;;;;21.03;58.61;98697.09;4485096;31;33629;-87
2023/07/26 05:15:46;;;;;;;0.00;0.00;;;;;;;21.29;56.63;98698.88;4500711;31;33004;-89
2023/07/26 05:18:14;;;;;;;0.13;0.13;;;;;;;21.41;57.51;98700.28;4474316;31;34602;-89
2023/07/26 05:20:42;;;;;;;0.00;0.00;;;;;;;21.48;57.06;98704.00;4467674;31;32360;-89
2023/07/26 05:23:10;;;;;;;1.67;1.08;;;;;;;21.18;58.78;98711.59;4478949;32;32498;-89
2023/07/26 05:25:39;;;;;;;0.25;0.25;;;;;;;21.52;56.73;98713.44;4492632;31;32265;-89
2023/07/26 05:28:07;;;;;;;0.00;0.00;;;;;;;21.35;57.63;98709.00;4468838;31;100469;-89
2023/07/26 05:30:39;;;;;;;2.20;0.22;;;;;;;21.28;58.04;98699.88;4460637;32;33316;-89
2023/07/26 05:33:09;;;;;;;0.20;0.20;;;;;;;21.42;57.72;98708.19;4473358;31;33363;-89
2023/07/26 05:35:38;;;;;;;0.35;0.35;;;;;;;21.47;57.22;98710.38;4486612;31;32646;-89
2023/07/26 05:38:05;;;;;;;0.17;0.17;;;;;;;21.16;57.66;98704.69;4474470;31;33258;-89
2023/07/26 05:40:33;;;;;;;0.03;0.03;;;;;;;21.22;57.24;98717.47;4478955;31;33773;-89
2023/07/26 05:43:01;;;;;;;0.17;0.17;;;;;;;21.15;57.65;98717.28;4474948;31;32065;-88
2023/07/26 05:45:29;;;;;;;0.00;0.00;;;;;;;21.06;58.65;98712.03;4460497;31;33112;-89
2023/07/26 05:47:56;;;;;;;0.70;0.70;;;;;;;20.87;58.74;98718.47;4482847;31;33127;-90
2023/07/26 05:50:24;;;;;;;0.00;0.00;;;;;;;20.62;59.86;98720.16;4478475;31;33116;-90
2023/07/26 05:52:52;;;;;;;0.20;0.17;;;;;;;20.73;59.92;98724.41;4478092;31;33314;-89
2023/07/26 05:55:20;;;;;;;2.00;0.40;;;;;;;20.91;58.78;98730.56;4468155;32;32918;-89
2023/07/26 05:57:47;;;;;;;0.37;0.35;;;;;;;20.56;59.93;98732.34;4459059;32;33298;-89
2023/07/26 06:00:17;;;;;;;0.40;0.40;;;;;;;20.83;58.55;98739.38;4478429;31;33687;-88
2023/07/26 06:02:45;;;;;;;0.37;0.37;;;;;;;20.49;59.90;98731.28;4480091;31;32946;-89
2023/07/26 06:05:13;;;;;;;0.20;0.20;;;;;;;20.55;59.85;98738.69;4472308;31;32212;-89
2023/07/26 06:07:41;;;;;;;0.52;0.45;;;;;;;20.77;59.35;98733.81;4463458;31;33276;-89
2023/07/26 06:10:09;;;;;;;0.55;0.55;;;;;;;20.44;59.71;98745.13;4477988;31;32791;-89
2023/07/26 06:12:37;;;;;;;0.00;0.00;;;;;;;20.82;59.19;98751.13;4471897;31;33138;-90
2023/07/26 06:15:05;;;;;;;1.55;1.05;;;;;;;21.03;57.96;98750.78;4463888;31;33242;-90
2023/07/26 06:17:34;;;;;;;0.15;0.15;;;;;;;20.67;59.47;98752.72;4482349;31;34397;-89
2023/07/26 06:20:03;;;;;;;0.00;0.00;;;;;;;20.83;58.06;98760.00;4465814;31;33219;-89
2023/07/26 06:22:31;;;;;;;1.08;0.20;;;;;;;20.82;58.93;98763.72;4464071;32;33011;-90
2023/07/26 06:24:59;;;;;;;0.32;0.20;;;;;;;20.26;60.51;98754.19;4470037;31;32859;-90
2023/07/26 06:27:30;;;;;;;0.55;0.30;;;;;;;20.56;59.96;98758.34;4469269;31;33412;-89
2023/07/26 06:29:57;;;;;;;0.00;0.00;;;;;;;20.63;60.52;98762.91;4475421;31;33546;-90
2023/07/26 06:32:25;;;;;;;0.30;0.30;;;;;;;21.08;59.45;98759.19;4470139;32;32661;-89
2023/07/26 06:34:53;;;;;;;0.00;0.00;;;;;;;21.48;58.00;98755.03;4472650;31;33586;-90
2023/07/26 06:37:20;;;;;;;0.00;0.00;;;;;;;21.27;58.93;98763.47;4464864;31;33014;-90
2023/07/26 06:39:48;;;;;;;0.88;0.80;;;;;;;21.61;58.10;98760.81;4472547;32;33761;-90
2023/07/26 06:42:16;;;;;;;0.00;0.00;;;;;;;21.14;61.24;98777.34;4458076;32;33065;-90
2023/07/26 06:44:44;;;;;;;0.00;0.00;;;;;;;21.09;60.83;98782.34;4486585;31;32886;-90
2023/07/26 06:47:12;;;;;;;0.62;0.15;;;;;;;20.96;60.62;98787.28;4471165;32;34062;-91
2023/07/26 06:49:39;;;;;;;0.00;0.00;;;;;;;21.24;59.73;98790.63;4480838;31;33896;-90
2023/07/26 06:52:07;;;;;;;0.20;0.20;;;;;;;21.22;59.81;98787.25;4480812;32;33137;-90
2023/07/26 06:54:36;;;;;;;0.30;0.10;;;;;;;20.74;62.78;98787.78;4476693;31;34031;-90
2023/07/26 06:57:04;;;;;;;0.43;0.43;;;;;;;21.02;61.04;98794.69;4486728;31;32489;-91
2023/07/26 06:59:32;;;;;;;0.10;0.10;;;;;;;21.25;60.01;98807.59;4473300;31;33376;-90
2023/07/26 07:01:59;;;;;;;0.00;0.00;;;;;;;20.99;61.81;98811.13;4472050;32;32858;-90
2023/07/26 07:04:27;;;;;;;0.05;0.05;;;;;;;20.42;63.96;98818.69;4473276;32;33342;-91
2023/07/26 07:06:55;;;;;;;0.25;0.25;;;;;;;20.86;62.13;98824.09;4460061;32;32472;-91
2023/07/26 07:09:24;;;;;;;1.55;0.70;;;;;;;20.91;61.68;98816.44;4473477;31;33094;-89
2023/07/26 07:11:51;;;;;;;0.43;0.20;;;;;;;20.86;61.40;98818.75;4486067;31;33478;-90
2023/07/26 07:14:20;;;;;;;0.20;0.20;;;;;;;20.42;64.10;98818.69;4491908;31;33373;-92
2023/07/26 07:16:50;;;;;;;0.00;0.00;;;;;;;20.62;62.59;98827.44;4479300;31;32745;-93
2023/07/26 07:19:18;;;;;;;0.00;0.00;;;;;;;20.78;62.50;98826.72;4470050;31;33906;-93
2023/07/26 07:21:46;;;;;;;0.00;0.00;;;;;;;20.95;61.69;98823.16;4473248;31;32650;-94
2023/07/26 07:24:44;;;;;;;0.43;0.40;;;;;;;20.82;61.80;98831.62;4391737;32;31819;-93
2023/07/26 07:27:13;;;;;;;0.03;0.00;;;;;;;20.44;62.52;98832.75;4432820;32;32144;-91
2023/07/26 07:29:41;;;;;;;0.00;0.00;;;;;;;20.92;60.70;98842.25;4398488;32;33906;-92
2023/07/26 07:32:09;;;;;;;0.05;0.05;;;;;;;20.57;62.44;98840.47;4418449;32;33593;-88
2023/07/26 07:34:49;;;;;;;0.00;0.00;;;;;;;20.83;61.15;98838.66;4408352;32;32597;-89
2023/07/26 07:37:16;;;;;;;0.50;0.25;;;;;;;20.69;62.46;98832.00;4407380;32;33584;-93
2023/07/26 07:40:11;;;;;;;0.00;0.00;;;;;;;20.71;62.80;98837.25;4402551;32;35386;-92
2023/07/26 07:42:39;;;;;;;0.00;0.00;;;;;;;20.88;62.90;98851.59;4409280;32;32210;-91
2023/07/26 07:45:08;;;;;;;0.28;0.28;;;;;;;21.00;61.29;98857.59;4409755;32;32240;-93
2023/07/26 07:47:36;;;;;;;1.95;0.75;;;;;;;20.91;62.18;98859.38;4392917;32;32798;-93
2023/07/26 07:50:24;;;;;;;0.20;0.20;;;;;;;20.85;62.67;98862.69;4393501;32;32875;-92
2023/07/26 07:52:52;;;;;;;0.00;0.00;;;;;;;20.90;62.44;98866.56;4406291;32;32904;-92
2023/07/26 07:55:38;;;;;;;0.00;0.00;;;;;;;20.87;62.25;98868.72;4394908;32;33539;-92
2023/07/26 07:58:05;;;;;;;1.15;0.77;;;;;;;21.25;61.60;98872.84;4401701;32;32722;-93
2023/07/26 08:01:04;;;;;;;0.00;0.00;;;;;;;20.92;62.81;98869.09;4384666;32;33338;-92
2023/07/26 08:03:33;;;;;;;0.00;0.00;;;;;;;21.06;62.19;98879.25;4361499;32;33789;-93
2023/07/26 08:06:11;;;;;;;0.47;0.37;;;;;;;20.46;63.98;98873.66;4382901;32;32514;-93
2023/07/26 08:09:09;;;;;;;0.32;0.32;;;;;;;20.73;63.41;98880.84;4364134;32;33004;-92
2023/07/26 08:11:56;;;;;;;0.17;0.17;;;;;;;20.80;63.25;98878.41;4373062;32;33414;-92
2023/07/26 08:14:27;;;;;;;0.00;0.00;;;;;;;20.79;63.13;98874.00;4367727;32;32592;-91
2023/07/26 08:16:55;;;;;;;1.35;0.35;;;;;;;20.77;63.22;98878.69;4358284;32;32615;-92
2023/07/26 08:19:24;;;;;;;0.15;0.08;;;;;;;20.94;62.18;98877.84;4361535;32;33801;-92
2023/07/26 08:22:13;;;;;;;0.13;0.13;;;;;;;20.88;63.28;98870.41;4359726;32;33047;-92
2023/07/26 08:24:41;;;;;;;1.12;0.20;;;;;;;21.32;60.71;98876.66;4365106;32;32388;-92
2023/07/26 08:27:16;;;;;;;0.20;0.10;;;;;;;20.84;62.09;98874.38;4371123;32;31945;-92
2023/07/26 08:29:44;;;;;;;0.20;0.20;;;;;;;20.90;62.44;98880.00;4365767;32;34054;-92
2023/07/26 08:32:12;;;;;;;0.22;0.22;;;;;;;20.60;63.07;98886.56;4367497;32;34699;-92
2023/07/26 08:34:55;;;;;;;;;;;;;;;20.41;64.41;98890.25;4338898;33;32674;-92
2023/07/26 08:37:23;;;;;;;0.30;0.30;;;;;;;20.44;63.61;98894.44;4324375;33;33304;-92
2023/07/26 08:40:00;;;;;;;0.43;0.43;;;;;;;20.54;63.18;98903.28;4327962;33;32880;-93
2023/07/26 08:42:56;;;;;;;0.30;0.30;;;;;;;20.46;63.42;98901.34;4355734;32;32861;-92
2023/07/26 08:45:42;;;;;;;0.45;0.45;;;;;;;20.97;61.57;98898.97;4387462;32;34499;-92
2023/07/26 08:48:36;;;;;;;1.60;0.35;;;;;;;20.60;62.25;98905.34;4368064;32;32520;-93
2023/07/26 08:51:20;;;;;;;0.20;0.15;;;;;;;21.17;61.74;98915.75;4365933;32;33792;-91
2023/07/26 08:53:49;;;;;;;0.47;0.47;;;;;;;21.14;60.60;98924.13;4384273;32;33791;-92
2023/07/26 08:56:18;;;;;;;0.10;0.10;;;;;;;20.94;60.87;98913.56;4366076;32;32654;-92
2023/07/26 08:58:46;;;;;;;0.00;0.00;;;;;;;21.16;60.13;98933.69;4378486;32;32128;-92
2023/07/26 09:01:47;;;;;;;2.35;0.62;;;;;;;21.37;59.25;98929.88;4337277;32;32571;-94
2023/07/26 09:04:33;;;;;;;0.40;0.40;;;;;;;20.93;60.66;98935.16;4328121;33;33409;-94
2023/07/26 09:07:03;;;;;;;0.00;0.00;;;;;;;20.93;60.41;98932.50;4315784;33;32913;-93
2023/07/26 09:09:43;;;;;;;0.20;0.20;;;;;;;21.21;58.91;98936.75;4360776;32;33192;-94
2023/07/26 09:12:28;;;;;;;1.08;0.57;;;;;;;21.02;60.41;98946.81;4346301;33;34224;-94
2023/07/26 09:14:58;;;;;;;;;;;;;;;20.80;61.20;98948.16;4347400;32;33248;-95
2023/07/26 09:17:39;;;;;;;0.10;0.10;;;;;;;20.81;61.24;98956.03;4360270;32;32979;-94
2023/07/26 09:20:26;;;;;;;0.43;0.43;;;;;;;21.29;59.52;98953.94;4348083;33;32778;-94
2023/07/26 09:23:16;;;;;;;0.22;0.22;;;;;;;21.49;58.88;98950.09;4347072;33;33067;-94
2023/07/26 09:25:44;;;;;;;0.13;0.10;;;;;;;21.29;60.23;98940.53;4347471;33;32586;-94
2023/07/26 09:28:14;;;;;;;0.10;0.10;;;;;;;21.30;60.28;98936.81;4340423;33;32744;-93
2023/07/26 09:30:58;;;;;;;0.00;0.00;;;;;;;21.43;59.88;98939.97;4359356;32;32441;-94
2023/07/26 09:33:46;;;;;;;0.57;0.57;;;;;;;21.63;59.90;98941.44;4347026;33;32644;-95
2023/07/26 09:36:50;;;;;;;0.13;0.13;;;;;;;21.62;60.33;98937.09;4389377;32;33145;-93
2023/07/26 09:39:19;;;;;;;0.00;0.00;;;;;;;21.72;59.09;98935.13;4377926;32;32084;-94
2023/07/26 09:42:25;;;;;;;0.03;0.03;;;;;;;22.19;57.40;98940.09;4383566;32;32953;-91
2023/07/26 09:44:57;;;;;;;0.52;0.52;;;;;;;22.31;57.19;98923.66;4391135;32;32387;-94
2023/07/26 09:48:04;;;;;;;0.37;0.37;;;;;;;22.27;58.46;98922.31;4376432;32;33478;-91
2023/07/26 09:50:32;;;;;;;0.10;0.10;;;;;;;22.33;57.20;98921.66;4349213;32;33174;-91
2023/07/26 09:53:06;;;;;;;0.20;0.20;;;;;;;22.73;56.44;98924.44;4339402;32;33067;-95
2023/07/26 09:55:46;;;;;;;0.20;0.10;;;;;;;22.87;56.72;98922.09;4380009;32;32770;-95
2023/07/26 09:58:30;;;;;;;0.05;0.03;;;;;;;22.60;58.29;98934.00;4371790;32;33237;-91
2023/07/26 10:01:01;;;;;;;0.55;0.55;;;;;;;21.80;57.09;98947.78;4396057;32;34263;-91
2023/07/26 10:03:33;;;;;;;0.40;0.40;;;;;;;22.11;56.64;98934.69;4367427;32;30585;-94
2023/07/26 10:06:10;;;;;;;0.05;0.05;;;;;;;22.18;57.16;98943.81;4399569;32;32102;-94
2023/07/26 10:09:00;;;;;;;0.73;0.40;;;;;;;22.25;56.79;98935.91;4396239;32;32863;-93
2023/07/26 10:11:47;;;;;;;7.03;0.85;;;;;;;21.99;57.77;98941.34;4396895;32;32841;-94
2023/07/26 10:14:19;;;;;;;0.00;0.00;;;;;;;22.20;57.28;98941.78;4394098;32;32744;-93
2023/07/26 10:16:48;;;;;;;0.32;0.32;;;;;;;22.01;57.26;98938.47;4398427;32;32955;-95
2023/07/26 10:19:19;;;;;;;;;;;;;;;21.97;57.51;98949.53;4382386;32;32791;-91
2023/07/26 10:21:47;;;;;;;0.00;0.00;;;;;;;22.28;56.39;98945.53;4392749;32;34205;-91
2023/07/26 10:24:16;;;;;;;0.10;0.10;;;;;;;21.94;57.22;98952.56;4390334;32;32813;-91
2023/07/26 10:26:46;;;;;;;0.15;0.15;;;;;;;21.84;58.29;98959.03;4395026;32;33581;-93
2023/07/26 10:29:14;;;;;;;0.00;0.00;;;;;;;22.13;57.22;98954.19;4388139;32;33278;-93
2023/07/26 10:31:42;;;;;;;0.10;0.10;;;;;;;22.37;56.09;98960.69;4395448;32;33210;-93
2023/07/26 10:34:18;;;;;;;0.13;0.13;;;;;;;22.15;56.65;98952.19;4397757;32;33031;-93
2023/07/26 10:36:59;;;;;;;0.45;0.43;;;;;;;22.38;55.84;98951.59;4391086;32;33675;-93
2023/07/26 10:39:30;;;;;;;0.17;0.17;;;;;;;22.27;55.68;98947.38;4386675;32;33864;-92
2023/07/26 10:41:57;;;;;;;0.10;0.00;;;;;;;21.67;57.07;98956.25;4392577;32;32877;-93
2023/07/26 10:44:25;;;;;;;0.10;0.10;;;;;;;21.68;57.84;98955.25;4400767;32;32088;-93
2023/07/26 10:47:04;;;;;;;0.55;0.55;;;;;;;22.29;55.92;98947.19;4398288;32;32717;-93
2023/07/26 10:49:36;;;;;;;0.20;0.20;;;;;;;22.52;53.83;98953.66;4396924;32;32862;-92
2023/07/26 10:52:05;;;;;;;0.03;0.03;;;;;;;21.74;55.42;98964.53;4401685;32;33170;-93
2023/07/26 10:54:41;;;;;;;0.08;0.08;;;;;;;21.59;55.83;98969.63;4401441;32;32182;-93
2023/07/26 10:57:31;;;;;;;0.25;0.25;;;;;;;21.61;55.62;98970.34;4388282;32;33504;-93
2023/07/26 11:00:16;;;;;;;0.10;0.10;;;;;;;22.15;54.93;98968.31;4396063;32;33018;-93
2023/07/26 11:02:52;;;;;;;0.00;0.00;;;;;;;21.47;55.48;98970.91;4386284;32;33542;-93
2023/07/26 11:05:21;;;;;;;0.05;0.03;;;;;;;21.78;54.90;98971.25;4398460;32;33346;-94
2023/07/26 11:07:53;;;;;;;0.00;0.00;;;;;;;22.14;54.02;98966.63;4396115;32;34119;-93
2023/07/26 11:10:31;;;;;;;0.13;0.13;;;;;;;22.19;53.68;98968.84;4408937;32;33015;-93
2023/07/26 11:13:13;;;;;;;0.17;0.17;;;;;;;22.24;53.99;98964.66;4408743;32;32662;-93
2023/07/26 11:15:49;;;;;;;0.20;0.10;;;;;;;22.67;54.02;98965.47;4407228;32;33475;-94
2023/07/26 11:18:41;;;;;;;0.00;0.00;;;;;;;23.02;51.75;98960.00;4393116;32;32908;-93
2023/07/26 11:21:15;;;;;;;0.40;0.40;;;;;;;22.55;53.25;98960.53;4394059;32;33062;-94
2023/07/26 11:23:45;;;;;;;0.00;0.00;;;;;;;22.51;53.42;98967.28;4382216;32;33067;-93
2023/07/26 11:26:12;;;;;;;0.10;0.10;;;;;;;22.61;52.15;98958.06;4401658;32;31966;-94
2023/07/26 11:28:41;;;;;;;0.40;0.32;;;;;;;22.99;51.73;98961.19;4395047;32;32793;-93
2023/07/26 11:31:17;;;;;;;0.10;0.10;;;;;;;22.41;52.67;98970.13;4403138;32;33640;-93
2023/07/26 11:33:47;;;;;;;0.15;0.15;;;;;;;22.58;52.35;98958.38;4393847;32;32640;-93
2023/07/26 11:36:20;;;;;;;0.10;0.10;;;;;;;22.31;52.21;98969.38;4394080;32;32133;-92
2023/07/26 11:38:48;;;;;;;0.35;0.35;;;;;;;22.21;53.65;98951.53;4399964;32;33872;-93
2023/07/26 11:41:34;;;;;;;0.22;0.22;;;;;;;22.41;53.10;98956.66;4394156;32;33399;-93
2023/07/26 11:44:03;;;;;;;0.10;0.10;;;;;;;22.59;52.34;98960.06;4399851;32;32722;-93
2023/07/26 11:46:33;;;;;;;0.00;0.00;;;;;;;22.77;50.88;98956.41;4392033;32;32062;-93
2023/07/26 11:49:01;;;;;;;0.30;0.30;;;;;;;22.45;52.09;98942.69;4390929;32;33830;-93
2023/07/26 11:51:33;;;;;;;0.17;0.15;;;;;;;22.74;51.79;98942.28;4379924;32;33266;-93
2023/07/26 11:54:01;;;;;;;0.10;0.10;;;;;;;23.41;49.85;98944.03;4389689;32;32828;-94
2023/07/26 11:56:33;;;;;;;1.15;0.47;;;;;;;23.40;50.19;98947.72;4398360;32;32522;-94
2023/07/26 11:59:02;;;;;;;1.35;1.10;;;;;;;23.92;48.55;98958.09;4387666;32;34026;-94
2023/07/26 12:01:32;;;;;;;0.25;0.25;;;;;;;23.92;48.16;98958.09;4386842;32;32631;-94
2023/07/26 12:04:01;;;;;;;0.10;0.08;;;;;;;24.01;47.41;98959.75;4400763;32;33090;-94
2023/07/26 12:06:33;;;;;;;0.00;0.00;;;;;;;24.12;48.44;98955.84;4398331;32;32698;-93
2023/07/26 12:09:09;;;;;;;1.02;0.52;;;;;;;24.50;47.41;98962.31;4392970;32;32566;-94